Time;durP1;ratioP1;P1;durP2;ratioP2;P2;SDS_P1;SDS_P2;PMS_P1;PMS_P2;Temp;Humidity;BMP_temperature;BMP_pressure;BME280_temperature;BME280_humidity;BME280_pressure;Samples;Min_cycle;Max_cycle;Signal;HPM_P1;HPM_P2
2021/04/07 00:01:33;;;;;;;8.63;3.83;;;;;;;0.27;83.42;99307.51;3530151;81;26836;-83
2021/04/07 00:06:36;;;;;;;11.30;3.50;;;;;;;0.27;83.25;99304.80;3513417;81;97875;-82
2021/04/07 00:11:37;;;;;;;14.93;5.03;;;;;;;0.24;83.35;99300.85;3523938;82;31864;-83
2021/04/07 00:16:38;;;;;;;15.10;5.10;;;;;;;0.20;83.29;99305.93;3509001;82;97895;-83
2021/04/07 00:21:38;;;;;;;11.13;4.27;;;;;;;0.14;83.47;99292.39;3501592;82;26460;-82
2021/04/07 00:26:39;;;;;;;13.27;4.83;;;;;;;0.08;83.52;99298.59;3518360;82;97850;-82
2021/04/07 00:31:40;;;;;;;14.03;4.63;;;;;;;0.07;83.61;99298.92;3513740;82;27033;-85
2021/04/07 00:36:43;;;;;;;10.70;4.37;;;;;;;0.04;84.14;99291.47;3518961;81;97812;-81
2021/04/07 00:41:44;;;;;;;11.70;5.20;;;;;;;0.11;84.08;99298.48;3527618;82;35019;-83
2021/04/07 00:46:45;;;;;;;10.97;4.10;;;;;;;0.09;84.32;99304.78;3517149;80;98271;-87
2021/04/07 00:51:45;;;;;;;11.87;4.50;;;;;;;0.06;84.54;99300.05;3523063;82;34962;-83
2021/04/07 00:56:50;;;;;;;11.83;5.23;;;;;;;-0.01;84.66;99306.55;3516001;82;98158;-83
2021/04/07 01:01:52;;;;;;;15.20;5.53;;;;;;;-0.01;84.66;99306.55;3525032;82;35498;-83
2021/04/07 01:06:53;;;;;;;14.97;6.20;;;;;;;-0.01;84.96;99309.26;3513208;82;98707;-82
2021/04/07 01:11:54;;;;;;;11.47;5.47;;;;;;;0.03;84.90;99311.53;3524182;82;35147;-82
2021/04/07 01:16:55;;;;;;;13.13;5.40;;;;;;;0.02;84.44;99312.66;3516232;82;98076;-82
2021/04/07 01:21:56;;;;;;;14.13;6.10;;;;;;;0.03;84.42;99313.69;3524546;82;35035;-82
2021/04/07 01:26:58;;;;;;;12.03;5.20;;;;;;;-0.02;84.77;99323.91;3515519;81;97983;-83
2021/04/07 01:31:59;;;;;;;12.00;6.57;;;;;;;-0.04;84.98;99323.46;3518042;82;35543;-83
2021/04/07 01:37:03;;;;;;;12.33;5.00;;;;;;;-0.08;84.73;99325.25;3529399;81;98316;-83
2021/04/07 01:42:06;;;;;;;11.80;4.30;;;;;;;-0.11;85.01;99327.25;3536719;82;35040;-81
2021/04/07 01:47:08;;;;;;;12.80;5.87;;;;;;;-0.11;85.31;99326.70;3531208;82;98315;-83
2021/04/07 01:52:09;;;;;;;13.77;5.00;;;;;;;-0.07;85.45;99328.17;3519765;82;35007;-83
2021/04/07 01:57:10;;;;;;;9.95;4.67;;;;;;;-0.01;85.55;99333.05;3539099;82;98030;-82
2021/04/07 02:02:11;;;;;;;11.67;5.30;;;;;;;0.06;85.29;99333.86;3536289;82;36074;-82
2021/04/07 02:07:16;;;;;;;12.97;5.40;;;;;;;0.07;85.30;99319.98;3536522;81;97898;-82
2021/04/07 02:12:17;;;;;;;10.67;4.43;;;;;;;0.09;85.28;99323.71;3542090;82;35020;-82
2021/04/07 02:17:17;;;;;;;11.05;4.47;;;;;;;0.12;85.03;99329.82;3529600;82;98041;-82
2021/04/07 02:22:19;;;;;;;9.23;4.83;;;;;;;0.10;84.85;99339.61;3528194;82;36055;-83
2021/04/07 02:27:23;;;;;;;9.17;4.57;;;;;;;0.08;84.83;99349.19;3537508;82;97945;-81
2021/04/07 02:32:25;;;;;;;9.33;5.13;;;;;;;0.05;84.80;99348.48;3537323;82;98266;-82
2021/04/07 02:37:26;;;;;;;10.43;4.77;;;;;;;0.09;84.99;99352.11;3521584;82;35121;-82
2021/04/07 02:42:27;;;;;;;11.70;4.57;;;;;;;0.09;84.85;99358.33;3510449;81;98461;-82
2021/04/07 02:47:27;;;;;;;9.43;4.40;;;;;;;0.14;85.09;99351.36;3522002;82;36503;-82
2021/04/07 02:52:28;;;;;;;9.77;4.83;;;;;;;0.16;84.97;99357.20;3513068;81;98227;-82
2021/04/07 02:57:29;;;;;;;12.13;4.87;;;;;;;0.21;85.06;99355.65;3523691;82;35061;-82
2021/04/07 03:02:29;;;;;;;11.10;5.43;;;;;;;0.27;85.12;99357.02;3519610;81;98381;-80
2021/04/07 03:07:30;;;;;;;11.06;4.60;;;;;;;0.32;85.22;99361.41;3524511;82;35149;-80
2021/04/07 03:12:31;;;;;;;11.27;4.30;;;;;;;0.37;85.02;99362.00;3518435;80;108614;-82
2021/04/07 03:17:32;;;;;;;11.03;4.10;;;;;;;0.38;85.12;99365.48;3524036;82;32708;-81
2021/04/07 03:22:34;;;;;;;9.90;4.17;;;;;;;0.42;85.00;99373.16;3517513;82;98286;-81
2021/04/07 03:27:35;;;;;;;8.93;4.53;;;;;;;0.51;85.15;99373.86;3520119;82;33887;-82
2021/04/07 03:32:36;;;;;;;11.17;5.30;;;;;;;0.60;85.00;99380.75;3514177;82;98064;-81
2021/04/07 03:37:36;;;;;;;8.20;4.30;;;;;;;0.61;84.84;99383.68;3507020;81;32738;-82
2021/04/07 03:42:37;;;;;;;11.63;4.07;;;;;;;0.62;84.72;99381.77;3438496;83;98044;-81
2021/04/07 03:47:38;;;;;;;9.20;3.97;;;;;;;0.64;84.62;99387.62;3503119;82;32311;-81
2021/04/07 03:52:38;;;;;;;9.57;3.80;;;;;;;0.70;84.94;99387.09;3495517;79;98613;-81
2021/04/07 03:57:39;;;;;;;10.10;4.30;;;;;;;0.76;84.67;99378.96;3441465;84;32422;-81
2021/04/07 04:02:40;;;;;;;8.93;4.03;;;;;;;0.85;84.57;99383.72;3468207;83;98311;-81
2021/04/07 04:07:41;;;;;;;8.93;4.20;;;;;;;0.91;84.23;99377.50;3477136;83;26007;-82
2021/04/07 04:12:42;;;;;;;11.57;5.37;;;;;;;0.91;84.23;99377.50;3476208;83;98146;-82
2021/04/07 04:17:44;;;;;;;9.27;3.77;;;;;;;0.87;84.13;99381.45;3553776;82;25943;-81
2021/04/07 04:22:45;;;;;;;10.90;3.70;;;;;;;0.88;84.23;99381.67;3542670;81;98022;-82
2021/04/07 04:27:47;;;;;;;8.97;4.33;;;;;;;0.92;84.08;99388.55;3555254;82;27757;-82
2021/04/07 04:32:49;;;;;;;10.33;3.70;;;;;;;0.91;84.07;99395.91;3542120;82;98411;-81
2021/04/07 04:37:50;;;;;;;9.47;3.97;;;;;;;0.91;84.01;99401.32;3545649;82;25972;-81
2021/04/07 04:42:51;;;;;;;8.60;3.93;;;;;;;0.90;83.96;99409.78;3541255;82;98186;-83
2021/04/07 04:47:52;;;;;;;9.60;3.90;;;;;;;0.90;84.05;99412.48;3551142;82;26895;-81
2021/04/07 04:52:52;;;;;;;10.43;3.97;;;;;;;0.91;84.12;99417.57;3542022;82;98492;-81
2021/04/07 04:57:56;;;;;;;11.10;4.27;;;;;;;1.02;84.37;99428.73;3539164;82;26271;-82
2021/04/07 05:02:57;;;;;;;12.73;4.27;;;;;;;1.01;85.06;99424.45;3537262;79;98197;-82
2021/04/07 05:07:58;;;;;;;13.93;6.40;;;;;;;0.96;85.30;99428.19;3546206;82;27253;-81
2021/04/07 05:12:59;;;;;;;11.07;4.40;;;;;;;0.97;85.36;99436.53;3542825;82;98395;-82
2021/04/07 05:17:59;;;;;;;11.77;4.70;;;;;;;1.02;85.72;99425.48;3549649;82;27255;-82
2021/04/07 05:23:00;;;;;;;14.47;5.13;;;;;;;1.01;85.58;99446.93;3539682;81;98302;-84
2021/04/07 05:28:05;;;;;;;9.20;4.30;;;;;;;1.00;85.69;99445.33;3542824;82;25932;-82
2021/04/07 05:33:08;;;;;;;10.37;3.60;;;;;;;1.03;85.66;99451.44;3533890;82;98089;-82
2021/04/07 05:38:08;;;;;;;9.87;3.90;;;;;;;1.03;85.66;99462.27;3544747;82;26862;-83
2021/04/07 05:43:09;;;;;;;10.00;5.00;;;;;;;1.09;85.67;99464.21;3542951;82;101135;-82
2021/04/07 05:48:10;;;;;;;8.10;3.60;;;;;;;0.99;85.87;99441.04;3551507;82;26716;-82
2021/04/07 05:53:12;;;;;;;13.47;4.33;;;;;;;1.23;85.64;99472.78;3543270;82;98547;-83
2021/04/07 05:58:14;;;;;;;12.40;4.13;;;;;;;1.22;85.42;99478.75;3555553;82;26356;-81
2021/04/07 06:03:16;;;;;;;9.30;4.43;;;;;;;1.23;85.35;99480.36;3550463;80;98388;-81
2021/04/07 06:08:18;;;;;;;13.20;4.60;;;;;;;1.26;85.40;99489.16;3560867;81;26764;-83
2021/04/07 06:13:19;;;;;;;8.33;4.42;;;;;;;1.31;85.49;99494.94;3554377;81;98552;-82
2021/04/07 06:18:21;;;;;;;11.47;4.87;;;;;;;1.39;85.34;99494.83;3558622;81;27608;-83
2021/04/07 06:23:22;;;;;;;11.27;4.10;;;;;;;1.48;85.14;99502.84;3553900;79;98235;-82
2021/04/07 06:28:23;;;;;;;11.23;3.90;;;;;;;1.52;85.05;99511.30;3560745;81;25889;-82
2021/04/07 06:33:27;;;;;;;12.93;5.93;;;;;;;1.48;84.97;99519.88;3547876;79;98680;-81
2021/04/07 06:38:30;;;;;;;12.57;4.53;;;;;;;1.49;85.33;99524.75;3553548;81;27372;-83
2021/04/07 06:43:34;;;;;;;10.97;4.57;;;;;;;1.55;85.19;99532.33;3548760;82;97958;-84
2021/04/07 06:48:35;;;;;;;14.10;4.67;;;;;;;1.69;85.54;99532.76;3557301;81;27364;-88
2021/04/07 06:53:37;;;;;;;12.70;4.70;;;;;;;1.85;85.15;99535.56;3554326;79;97846;-83
2021/04/07 06:58:38;;;;;;;11.20;4.77;;;;;;;1.96;84.85;99543.46;3551778;82;27411;-83
2021/04/07 07:03:39;;;;;;;14.18;5.28;;;;;;;2.02;84.45;99552.98;3541110;82;98742;-83
2021/04/07 07:08:40;;;;;;;12.40;4.70;;;;;;;2.07;84.25;99549.45;3554149;82;26135;-83
2021/04/07 07:13:41;;;;;;;13.60;4.87;;;;;;;2.16;84.06;99558.27;3547507;81;98551;-85
2021/04/07 07:18:43;;;;;;;11.80;4.47;;;;;;;2.37;84.14;99562.17;3550839;81;26839;-83
2021/04/07 07:23:47;;;;;;;13.70;4.50;;;;;;;2.60;84.15;99562.67;3548212;81;98667;-81
2021/04/07 07:28:54;;;;;;;15.60;5.53;;;;;;;2.88;83.34;99569.44;3538844;82;27668;-85
2021/04/07 07:33:57;;;;;;;9.90;5.07;;;;;;;3.00;82.27;99573.48;3545237;82;98575;-83
2021/04/07 07:38:59;;;;;;;12.67;3.77;;;;;;;3.18;81.73;99575.52;3585864;80;28963;-82
2021/04/07 07:43:59;;;;;;;11.57;3.23;;;;;;;3.25;80.92;99589.31;3589008;80;98470;-84
2021/04/07 07:49:02;;;;;;;12.50;3.50;;;;;;;3.41;78.76;99600.20;3597433;80;26607;-83
2021/04/07 07:54:08;;;;;;;9.57;4.00;;;;;;;3.41;78.76;99600.20;3594197;78;98543;-83
2021/04/07 07:59:09;;;;;;;14.43;5.12;;;;;;;3.48;79.90;99599.02;3601721;80;28428;-81
2021/04/07 08:04:10;;;;;;;10.13;3.67;;;;;;;3.52;78.78;99605.34;3583651;80;98534;-81
2021/04/07 08:09:11;;;;;;;17.30;3.97;;;;;;;3.50;78.79;99615.20;3581134;80;26051;-83
2021/04/07 08:14:17;;;;;;;10.73;3.37;;;;;;;3.52;78.63;99618.95;3584377;79;98389;-81
2021/04/07 08:19:18;;;;;;;15.70;4.00;;;;;;;3.54;77.87;99630.26;3592066;81;27524;-83
2021/04/07 08:24:20;;;;;;;12.45;3.77;;;;;;;3.59;78.60;99633.53;3585381;79;98285;-82
2021/04/07 08:29:21;;;;;;;12.63;3.50;;;;;;;3.73;77.82;99636.62;3590264;81;26075;-82
2021/04/07 08:34:23;;;;;;;13.83;3.10;;;;;;;3.78;77.46;99632.84;3589423;81;98273;-83
2021/04/07 08:39:24;;;;;;;11.93;2.60;;;;;;;3.81;76.86;99645.73;3569381;81;27445;-85
2021/04/07 08:44:25;;;;;;;13.50;3.10;;;;;;;3.76;75.55;99648.15;3530597;81;97991;-83
2021/04/07 08:49:36;;;;;;;11.07;3.10;;;;;;;3.76;76.45;99649.51;3561156;81;26576;-82
2021/04/07 08:54:44;;;;;;;14.73;2.33;;;;;;;3.80;76.74;99656.39;3552684;78;98371;-84
2021/04/07 08:59:57;;;;;;;8.30;2.20;;;;;;;3.80;75.13;99663.20;3538049;82;28670;-82
2021/04/07 09:05:08;;;;;;;8.37;2.60;;;;;;;3.81;75.39;99670.22;3549380;82;98083;-84
2021/04/07 09:10:18;;;;;;;5.37;2.00;;;;;;;3.83;75.99;99669.31;3556466;82;27617;-82
2021/04/07 09:15:29;;;;;;;14.87;3.40;;;;;;;4.09;74.96;99672.31;3549417;81;98079;-83
2021/04/07 09:20:41;;;;;;;11.30;2.90;;;;;;;4.38;74.84;99678.09;3555070;81;27738;-83
2021/04/07 09:25:56;;;;;;;14.45;5.10;;;;;;;4.67;74.32;99665.87;3543500;81;98459;-81
2021/04/07 09:31:07;;;;;;;15.80;3.13;;;;;;;4.93;73.96;99673.67;3555397;81;27448;-82
2021/04/07 09:36:09;;;;;;;12.70;3.05;;;;;;;5.12;72.41;99675.63;3550747;78;98395;-82
2021/04/07 09:41:20;;;;;;;13.70;4.10;;;;;;;5.33;72.43;99676.02;3590207;80;27587;-81
2021/04/07 09:46:22;;;;;;;8.68;2.08;;;;;;;5.60;71.24;99673.63;3593738;80;97997;-82
2021/04/07 09:51:35;;;;;;;5.97;1.97;;;;;;;5.69;70.04;99682.38;3601568;80;27533;-82
2021/04/07 09:57:02;;;;;;;8.87;2.47;;;;;;;5.58;68.04;99683.56;3596305;80;97971;-82
2021/04/07 10:02:06;;;;;;;;;;;;;;;5.44;68.23;99693.39;3597133;80;28069;-83
2021/04/07 10:07:26;;;;;;;6.67;1.92;;;;;;;5.46;67.70;99691.89;3587283;80;83933;-83
2021/04/07 10:12:32;;;;;;;10.20;2.23;;;;;;;5.39;67.66;99689.59;3584496;80;98362;-84
2021/04/07 10:17:40;;;;;;;6.20;3.03;;;;;;;5.40;68.00;99694.69;3598634;81;26306;-83
2021/04/07 10:22:43;;;;;;;7.50;2.10;;;;;;;5.38;68.49;99695.64;3584238;81;98774;-82
2021/04/07 10:27:46;;;;;;;9.17;2.50;;;;;;;5.31;68.22;99700.97;3589410;81;27486;-83
2021/04/07 10:32:49;;;;;;;8.88;2.98;;;;;;;5.39;68.88;99705.95;3587943;79;98116;-83
2021/04/07 10:37:57;;;;;;;8.73;2.77;;;;;;;5.48;69.58;99712.00;3586445;81;27525;-83
2021/04/07 10:43:00;;;;;;;13.33;3.10;;;;;;;5.58;68.64;99702.67;3569197;81;98538;-83
2021/04/07 10:48:03;;;;;;;10.27;3.07;;;;;;;5.69;68.26;99705.02;3587549;81;27452;-83
2021/04/07 10:53:05;;;;;;;11.65;3.17;;;;;;;5.93;68.30;99708.80;3577501;81;98267;-81
2021/04/07 10:58:06;;;;;;;7.70;2.30;;;;;;;6.06;66.56;99712.15;3596591;79;27464;-83
2021/04/07 11:03:07;;;;;;;9.60;2.53;;;;;;;6.15;65.26;99718.14;3582245;81;98173;-82
2021/04/07 11:08:11;;;;;;;9.63;3.33;;;;;;;6.24;64.07;99720.86;3592508;81;26628;-84
2021/04/07 11:13:14;;;;;;;9.70;3.43;;;;;;;6.37;62.69;99714.05;3595596;78;98215;-86
2021/04/07 11:18:15;;;;;;;8.40;2.93;;;;;;;6.45;64.92;99713.02;3600165;80;27678;-85
2021/04/07 11:23:16;;;;;;;9.80;2.43;;;;;;;6.78;63.68;99713.13;3593564;79;98115;-87
2021/04/07 11:28:19;;;;;;;9.23;2.30;;;;;;;7.09;63.99;99715.50;3485096;82;27530;-85
2021/04/07 11:33:22;;;;;;;11.80;3.00;;;;;;;7.38;62.57;99720.20;3483204;83;98305;-85
2021/04/07 11:38:25;;;;;;;9.70;3.03;;;;;;;7.53;61.82;99716.45;3541041;81;27033;-84
2021/04/07 11:43:30;;;;;;;7.83;3.02;;;;;;;7.77;61.75;99723.37;3535556;81;98122;-86
2021/04/07 11:48:28;;;;;;;7.40;2.10;;;;;;;7.93;60.36;99723.36;3541204;82;27139;-88
2021/04/07 11:53:30;;;;;;;4.57;1.70;;;;;;;7.96;59.45;99721.83;3530030;81;98244;-87
2021/04/07 11:58:31;;;;;;;5.73;2.20;;;;;;;7.57;58.79;99737.82;3532059;81;27489;-87
2021/04/07 12:03:32;;;;;;;6.42;2.12;;;;;;;7.56;60.63;99728.60;3525258;82;98130;-87
2021/04/07 12:08:33;;;;;;;7.57;2.00;;;;;;;7.78;60.90;99729.05;3534517;82;26989;-86
2021/04/07 12:13:33;;;;;;;7.07;2.10;;;;;;;8.01;59.87;99729.70;3530018;81;98141;-87
2021/04/07 12:18:34;;;;;;;6.87;2.00;;;;;;;8.17;58.47;99718.69;3525924;81;26087;-95
2021/04/07 12:23:36;;;;;;;8.43;2.30;;;;;;;8.40;56.83;99730.88;3513683;81;98035;-86
2021/04/07 12:28:37;;;;;;;9.27;2.27;;;;;;;8.53;58.17;99708.84;3524043;82;26725;-87
2021/04/07 12:33:39;;;;;;;9.90;3.67;;;;;;;8.70;56.41;99717.20;3506157;82;98124;-84
2021/04/07 12:38:40;;;;;;;6.13;1.73;;;;;;;8.63;58.29;99718.53;3522598;82;26154;-87
2021/04/07 12:43:41;;;;;;;5.90;1.37;;;;;;;8.71;57.35;99711.92;3511558;82;97860;-92
2021/04/07 12:48:43;;;;;;;5.90;1.30;;;;;;;8.71;52.06;99711.12;3524594;82;26560;-87
2021/04/07 12:53:46;;;;;;;7.70;2.00;;;;;;;8.64;54.14;99705.59;3511619;82;98091;-86
2021/04/07 12:58:50;;;;;;;5.87;1.90;;;;;;;8.65;53.54;99694.81;3523776;82;26021;-86
2021/04/07 13:03:51;;;;;;;4.47;1.90;;;;;;;8.67;55.46;99694.64;3516009;82;97813;-90
2021/04/07 13:08:52;;;;;;;7.93;2.13;;;;;;;8.74;56.11;99695.28;3533603;81;26755;-84
2021/04/07 13:13:52;;;;;;;7.40;2.50;;;;;;;8.83;56.22;99690.25;3522267;82;98032;-86
2021/04/07 13:18:53;;;;;;;7.20;2.40;;;;;;;8.76;56.70;99718.99;3532393;82;26376;-87
2021/04/07 13:23:54;;;;;;;10.23;3.03;;;;;;;8.48;57.73;99715.47;3522952;82;98040;-83
2021/04/07 13:28:55;;;;;;;5.37;1.50;;;;;;;8.25;57.56;99712.16;3538515;82;26288;-88
2021/04/07 13:33:58;;;;;;;6.53;2.13;;;;;;;8.15;55.52;99714.19;3530407;82;98339;-90
2021/04/07 13:39:20;;;;;;;9.37;2.37;;;;;;;8.18;55.42;99719.49;3534666;82;25981;-87
2021/04/07 13:44:10;;;;;;;6.10;2.00;;;;;;;8.20;55.40;99728.14;3528660;79;98522;-86
2021/04/07 13:49:13;;;;;;;7.13;2.47;;;;;;;7.99;52.69;99746.52;3535747;82;25950;-91
2021/04/07 13:54:14;;;;;;;7.03;2.60;;;;;;;7.48;53.88;99742.78;3531584;81;98128;-87
2021/04/07 13:59:15;;;;;;;7.77;2.23;;;;;;;6.96;56.83;99754.39;3537525;81;26075;-88
2021/04/07 14:04:15;;;;;;;6.57;2.17;;;;;;;6.77;56.62;99737.50;3526492;82;98019;-90
2021/04/07 14:09:16;;;;;;;11.57;4.30;;;;;;;6.74;57.35;99731.98;3533193;82;26848;-86
2021/04/07 14:14:17;;;;;;;9.37;2.53;;;;;;;6.85;56.31;99724.16;3523929;81;98265;-88
2021/04/07 14:19:18;;;;;;;9.73;3.93;;;;;;;7.06;56.39;99731.88;3536367;81;25888;-85
2021/04/07 14:24:19;;;;;;;7.47;2.00;;;;;;;7.21;56.62;99732.28;3541959;82;98132;-83
2021/04/07 14:29:20;;;;;;;8.73;2.80;;;;;;;7.27;55.49;99723.95;3541794;82;25998;-85
2021/04/07 14:34:21;;;;;;;9.35;2.90;;;;;;;7.32;52.99;99726.36;3528815;82;97884;-85
2021/04/07 14:39:22;;;;;;;13.03;3.57;;;;;;;7.25;53.67;99727.05;3537158;81;33340;-84
2021/04/07 14:44:23;;;;;;;10.03;2.33;;;;;;;7.32;50.88;99731.84;3524253;82;98015;-84
2021/04/07 14:49:24;;;;;;;9.97;3.73;;;;;;;7.32;52.04;99727.73;3520018;82;34457;-85
2021/04/07 14:59:36;;;;;;;7.93;2.27;;;;;;;7.37;49.92;99731.52;3527878;81;33518;-85
2021/04/07 15:04:36;;;;;;;6.75;2.42;;;;;;;7.42;51.10;99731.95;3523000;82;98543;-88
2021/04/07 15:09:38;;;;;;;8.70;2.83;;;;;;;7.62;50.22;99745.70;3523385;82;33302;-84
2021/04/07 15:14:38;;;;;;;8.17;1.80;;;;;;;7.59;50.24;99749.77;3521957;81;98230;-84
2021/04/07 15:19:39;;;;;;;8.43;2.37;;;;;;;7.43;49.60;99755.45;3521473;82;33342;-85
2021/04/07 15:24:40;;;;;;;9.63;2.37;;;;;;;7.21;49.81;99752.20;3510654;82;98271;-84
2021/04/07 15:29:41;;;;;;;7.77;1.80;;;;;;;7.15;51.66;99763.27;3514646;82;33816;-85
2021/04/07 15:34:42;;;;;;;10.50;2.23;;;;;;;7.13;51.31;99762.06;3518199;82;98172;-84
2021/04/07 15:39:43;;;;;;;8.30;2.57;;;;;;;7.02;50.25;99766.59;3522853;82;32595;-85
2021/04/07 15:44:44;;;;;;;7.27;1.97;;;;;;;6.84;50.14;99769.65;3505182;81;98155;-84
2021/04/07 15:49:45;;;;;;;5.67;1.90;;;;;;;6.66;49.91;99765.27;3526535;82;31850;-85
2021/04/07 15:54:46;;;;;;;7.40;2.03;;;;;;;6.56;51.02;99775.48;3510297;82;98109;-85
2021/04/07 15:59:46;;;;;;;5.63;1.73;;;;;;;6.52;51.36;99776.55;3520415;82;32233;-84
2021/04/07 16:04:48;;;;;;;9.57;2.43;;;;;;;6.58;51.10;99772.35;3510046;81;98229;-83
2021/04/07 16:09:49;;;;;;;10.20;3.67;;;;;;;6.65;50.90;99785.56;3521165;82;31856;-84
2021/04/07 16:14:49;;;;;;;5.60;1.90;;;;;;;6.61;50.54;99784.71;3511916;82;98191;-83
2021/04/07 16:19:50;;;;;;;11.17;3.70;;;;;;;6.54;50.01;99781.87;3521748;82;31793;-85
2021/04/07 16:24:51;;;;;;;12.77;3.63;;;;;;;6.46;50.05;99788.95;3516334;81;98396;-85
2021/04/07 16:29:52;;;;;;;12.00;3.43;;;;;;;6.40;50.56;99794.52;3525794;81;26477;-85
2021/04/07 16:34:53;;;;;;;18.47;5.20;;;;;;;6.32;51.08;99792.22;3524655;81;98397;-86
2021/04/07 16:39:54;;;;;;;8.30;2.40;;;;;;;6.31;51.58;99793.95;3529064;81;35081;-85
2021/04/07 16:44:56;;;;;;;10.10;3.43;;;;;;;6.25;51.44;99796.77;3502043;82;98138;-86
2021/04/07 16:49:57;;;;;;;9.30;2.97;;;;;;;6.11;51.44;99800.03;3519824;82;35003;-84
2021/04/07 16:54:58;;;;;;;10.23;4.00;;;;;;;5.97;50.63;99797.61;3521739;80;98128;-86
2021/04/07 16:59:59;;;;;;;10.50;3.57;;;;;;;5.90;51.18;99813.28;3514998;82;35655;-85
2021/04/07 17:04:59;;;;;;;12.03;3.80;;;;;;;5.82;51.00;99815.67;3526398;81;98297;-85
2021/04/07 17:10:02;;;;;;;10.97;4.30;;;;;;;5.75;51.82;99816.88;3536735;81;35068;-85
2021/04/07 17:15:04;;;;;;;8.20;3.40;;;;;;;5.64;51.72;99819.95;3523358;81;98618;-82
2021/04/07 17:20:06;;;;;;;6.47;2.33;;;;;;;5.52;51.28;99817.94;3527935;81;98499;-85
2021/04/07 17:25:08;;;;;;;8.97;3.03;;;;;;;5.50;51.96;99832.49;3534961;82;35068;-83
2021/04/07 17:30:12;;;;;;;12.75;3.62;;;;;;;5.37;51.72;99837.31;3525394;81;98291;-85
2021/04/07 17:35:13;;;;;;;9.63;3.77;;;;;;;5.33;52.58;99836.43;3533609;81;35268;-83
2021/04/07 17:40:15;;;;;;;8.53;2.63;;;;;;;5.28;53.24;99839.99;3523104;82;98436;-83
2021/04/07 17:45:16;;;;;;;6.33;2.77;;;;;;;5.20;53.63;99842.36;3541876;82;35061;-85
2021/04/07 17:50:17;;;;;;;11.03;3.87;;;;;;;5.09;54.10;99832.58;3537665;82;98618;-84
2021/04/07 17:55:19;;;;;;;8.90;3.33;;;;;;;5.04;54.55;99836.14;3535695;82;35136;-84
2021/04/07 18:00:22;;;;;;;13.32;5.72;;;;;;;4.96;54.67;99837.91;3532996;82;98123;-84
2021/04/07 18:05:23;;;;;;;11.57;3.93;;;;;;;4.87;54.91;99848.22;3539457;82;35003;-84
2021/04/07 18:10:24;;;;;;;9.73;3.30;;;;;;;4.78;55.21;99846.23;3535956;81;98360;-85
2021/04/07 18:15:25;;;;;;;11.07;3.33;;;;;;;4.68;55.68;99855.49;3542730;82;35107;-84
2021/04/07 18:20:31;;;;;;;9.70;3.63;;;;;;;4.59;55.86;99855.67;3534623;80;98234;-84
2021/04/07 18:25:33;;;;;;;10.10;2.77;;;;;;;4.52;56.37;99850.05;3538049;82;35644;-83
2021/04/07 18:30:43;;;;;;;12.57;3.90;;;;;;;4.40;56.60;99848.77;3535244;82;97815;-84
2021/04/07 18:35:46;;;;;;;13.43;4.77;;;;;;;4.33;57.25;99858.13;3534751;82;98034;-84
2021/04/07 18:40:48;;;;;;;15.90;5.30;;;;;;;4.26;57.79;99858.50;3538125;82;35065;-85
2021/04/07 18:45:48;;;;;;;15.43;4.57;;;;;;;4.23;57.87;99862.72;3527000;81;98546;-83
2021/04/07 18:50:49;;;;;;;11.05;3.90;;;;;;;4.18;57.98;99860.23;3527051;82;35492;-84
2021/04/07 18:55:50;;;;;;;10.27;2.30;;;;;;;4.14;58.16;99862.66;3517020;79;98488;-84
2021/04/07 19:00:51;;;;;;;8.57;2.30;;;;;;;4.12;57.80;99868.44;3524320;82;35302;-84
2021/04/07 19:05:52;;;;;;;9.13;2.50;;;;;;;4.09;57.69;99867.77;3522906;81;98243;-83
2021/04/07 19:10:52;;;;;;;6.13;2.07;;;;;;;4.05;58.26;99864.73;3523446;81;35266;-84
2021/04/07 19:15:53;;;;;;;7.30;3.00;;;;;;;3.88;57.59;99847.34;3519777;82;98046;-83
2021/04/07 19:20:54;;;;;;;8.60;2.90;;;;;;;3.88;57.59;99847.34;3530588;82;32713;-84
2021/04/07 19:25:54;;;;;;;9.70;2.92;;;;;;;3.97;57.66;99862.38;3519063;81;97940;-83
2021/04/07 19:30:55;;;;;;;12.17;3.40;;;;;;;3.97;57.77;99865.09;3516466;82;32763;-83
2021/04/07 19:35:56;;;;;;;12.73;3.73;;;;;;;3.98;57.91;99857.73;3516037;80;98078;-83
2021/04/07 19:40:57;;;;;;;6.20;2.40;;;;;;;3.94;58.00;99858.97;3525391;82;33309;-83
2021/04/07 19:45:58;;;;;;;11.77;3.30;;;;;;;3.93;58.27;99851.95;3507797;82;98293;-83
2021/04/07 19:51:00;;;;;;;18.27;5.80;;;;;;;3.95;58.02;99858.41;3517191;82;32819;-83
2021/04/07 19:56:01;;;;;;;12.40;4.78;;;;;;;3.95;58.35;99859.77;3517463;82;98441;-83
2021/04/07 20:01:02;;;;;;;13.40;4.20;;;;;;;3.96;58.57;99847.74;3526549;82;32706;-84
2021/04/07 20:06:03;;;;;;;19.67;7.60;;;;;;;3.98;58.77;99858.51;3513479;81;98304;-82
2021/04/07 20:11:05;;;;;;;30.07;11.63;;;;;;;3.99;58.86;99845.11;3523332;82;27635;-82
2021/04/07 20:16:07;;;;;;;12.82;5.40;;;;;;;4.02;59.11;99851.80;3508020;82;98939;-82
2021/04/07 20:21:08;;;;;;;15.33;5.13;;;;;;;4.04;59.40;99848.17;3525021;82;27526;-83
2021/04/07 20:26:09;;;;;;;14.13;5.20;;;;;;;4.06;59.39;99841.80;3515961;80;98288;-82
2021/04/07 20:31:09;;;;;;;18.47;8.17;;;;;;;4.07;59.63;99842.83;3524679;82;25970;-84
2021/04/07 20:36:12;;;;;;;19.60;7.97;;;;;;;4.07;59.81;99834.66;3510542;82;98313;-83
2021/04/07 20:41:13;;;;;;;19.90;8.33;;;;;;;4.08;59.93;99836.79;3519487;82;26632;-82
2021/04/07 20:46:14;;;;;;;25.90;9.60;;;;;;;4.09;60.22;99840.53;3513979;82;98313;-84
2021/04/07 20:51:15;;;;;;;17.60;6.83;;;;;;;4.08;60.34;99832.70;3520599;82;25929;-84
2021/04/07 20:56:15;;;;;;;13.60;4.97;;;;;;;4.08;60.63;99831.34;3516399;81;98105;-83
2021/04/07 21:01:16;;;;;;;12.77;5.07;;;;;;;4.07;61.14;99836.02;3517302;82;26858;-83
2021/04/07 21:06:17;;;;;;;11.40;4.40;;;;;;;4.07;61.42;99835.21;3518280;81;98023;-83
2021/04/07 21:11:18;;;;;;;9.73;4.20;;;;;;;4.09;61.83;99843.84;3518461;82;25948;-83
2021/04/07 21:16:18;;;;;;;10.30;4.20;;;;;;;4.09;62.05;99834.31;3519291;79;98203;-83
2021/04/07 21:21:19;;;;;;;11.45;4.72;;;;;;;4.07;62.56;99839.30;3530388;81;33806;-83
2021/04/07 21:26:20;;;;;;;14.00;4.57;;;;;;;4.05;63.53;99836.91;3503973;81;98489;-85
2021/04/07 21:31:21;;;;;;;9.30;4.15;;;;;;;3.97;65.27;99829.70;3508120;82;33374;-82
2021/04/07 21:36:22;;;;;;;11.67;4.50;;;;;;;3.91;65.67;99831.66;3529019;82;98092;-84
2021/04/07 21:41:23;;;;;;;14.20;6.27;;;;;;;3.88;66.02;99826.34;3522753;82;33778;-83
2021/04/07 21:46:29;;;;;;;13.53;5.53;;;;;;;3.87;66.24;99822.62;3532889;82;98436;-83
2021/04/07 21:51:30;;;;;;;12.05;5.12;;;;;;;3.87;66.35;99821.27;3540416;82;26452;-82
2021/04/07 21:56:30;;;;;;;15.15;5.97;;;;;;;3.79;67.08;99823.55;3533000;82;98387;-83
2021/04/07 22:01:31;;;;;;;13.57;6.00;;;;;;;3.65;67.09;99823.16;3542156;82;34215;-83
2021/04/07 22:06:34;;;;;;;16.07;6.75;;;;;;;3.70;67.79;99835.94;3514211;82;98128;-83
2021/04/07 22:11:38;;;;;;;13.60;6.43;;;;;;;3.66;69.29;99839.70;3533102;82;33308;-84
2021/04/07 22:16:40;;;;;;;13.77;6.00;;;;;;;3.64;70.00;99841.41;3529195;82;98173;-83
2021/04/07 22:21:44;;;;;;;13.80;6.13;;;;;;;3.69;70.76;99838.45;3538342;82;33376;-85
2021/04/07 22:26:47;;;;;;;13.83;6.97;;;;;;;3.72;71.60;99839.69;3536902;82;97886;-81
2021/04/07 22:31:51;;;;;;;12.30;6.60;;;;;;;3.68;72.30;99838.23;3541779;82;33757;-83
2021/04/07 22:36:52;;;;;;;14.00;6.50;;;;;;;3.63;72.98;99841.74;3531533;82;98316;-84
2021/04/07 22:41:52;;;;;;;13.53;6.80;;;;;;;3.55;74.47;99846.18;3534328;82;33357;-84
2021/04/07 22:46:53;;;;;;;13.60;6.45;;;;;;;3.44;75.00;99847.80;3535814;82;98207;-85
2021/04/07 22:51:54;;;;;;;15.33;7.00;;;;;;;3.43;75.71;99842.14;3538497;82;33617;-84
2021/04/07 22:56:56;;;;;;;15.68;7.67;;;;;;;3.47;76.23;99841.69;3534870;82;98438;-85
2021/04/07 23:01:56;;;;;;;14.13;7.20;;;;;;;3.50;76.31;99843.70;3523662;82;33053;-84
2021/04/07 23:06:57;;;;;;;15.28;7.62;;;;;;;3.47;76.49;99846.32;3537209;81;98229;-85
2021/04/07 23:11:58;;;;;;;16.87;7.60;;;;;;;3.40;76.83;99839.32;3542479;82;32589;-86
2021/04/07 23:16:59;;;;;;;14.60;7.10;;;;;;;3.31;77.42;99836.73;3533841;82;98026;-84
2021/04/07 23:21:59;;;;;;;14.80;6.77;;;;;;;3.30;77.93;99843.31;3538464;82;31705;-85
2021/04/07 23:27:00;;;;;;;11.17;5.30;;;;;;;3.29;78.54;99842.28;3534920;82;98454;-88
2021/04/07 23:32:01;;;;;;;11.97;5.50;;;;;;;3.35;79.22;99849.88;3538162;82;32811;-84
2021/04/07 23:37:02;;;;;;;14.17;6.53;;;;;;;3.43;78.81;99839.98;3536097;81;98654;-85
2021/04/07 23:42:03;;;;;;;12.87;6.30;;;;;;;3.49;78.98;99846.20;3516208;82;30994;-85
2021/04/07 23:47:04;;;;;;;13.87;6.47;;;;;;;3.47;78.94;99844.41;3508849;82;98182;-86
2021/04/07 23:52:06;;;;;;;12.85;6.00;;;;;;;3.40;79.65;99845.56;3520031;82;30969;-87